OIBA METAR and TAF | Updated Today

OIBA METAR

Abu Musa Island Airport

Observation time: 54 min. ago

OIBA 011400Z 35006KT CAVOK 23/15 Q1014

Need help? Read our tutorial on how to read METARs or read the parsed version below.

Abu Musa Island Airport (OIBA) METAR

  • Weather conditions on Wed, 01 Feb 2023 14:00:00 +0000 (54 min. ago):
  • Present conditions: Dry
  • Clouds: Clear skies
  • Visibility: Greater than 10 km
  • Wind: 350 degrees at 6 knots
  • Temperature: 23 celsius
  • Dew point: 15 celsius
  • Pressure: 1014 millibars
  • Remarks: None


Useful to know...